createdAt,value
2022-11-16T00:00:06.543Z,81
2022-11-16T00:20:03.028Z,81
2022-11-16T00:40:02.206Z,81
2022-11-16T01:00:02.746Z,82
2022-11-16T01:20:02.689Z,82
2022-11-16T01:40:03.311Z,82
2022-11-16T02:00:02.588Z,82
2022-11-16T02:20:04.134Z,82
2022-11-16T02:40:02.416Z,82
2022-11-16T03:00:02.726Z,82
2022-11-16T03:20:02.181Z,82
2022-11-16T03:40:02.796Z,82
2022-11-16T04:00:04.091Z,82
2022-11-16T04:20:02.569Z,83
2022-11-16T04:40:02.987Z,83
2022-11-16T05:00:02.527Z,83
2022-11-16T05:20:02.903Z,83
2022-11-16T05:40:02.174Z,83
2022-11-16T06:00:02.490Z,83
2022-11-16T06:20:03.617Z,83
2022-11-16T06:40:04.430Z,83
2022-11-16T07:00:02.878Z,83
2022-11-16T07:20:02.423Z,83
2022-11-16T07:40:03.172Z,83
2022-11-16T08:00:02.925Z,83
2022-11-16T08:20:02.891Z,83
2022-11-16T08:40:02.522Z,83
2022-11-16T09:00:03.148Z,83
2022-11-16T09:20:03.080Z,83
2022-11-16T09:40:02.802Z,83
2022-11-16T10:00:03.465Z,83
2022-11-16T10:20:03.264Z,82
2022-11-16T10:40:02.824Z,83
2022-11-16T11:00:03.625Z,82
2022-11-16T11:20:03.591Z,82
2022-11-16T11:40:03.090Z,82
2022-11-16T12:00:02.660Z,82
2022-11-16T12:20:02.360Z,82
2022-11-16T12:40:02.954Z,81
2022-11-16T13:00:02.858Z,81
2022-11-16T13:20:02.914Z,80
2022-11-16T13:40:02.619Z,80
2022-11-16T14:00:03.321Z,80
2022-11-16T14:20:03.254Z,79
2022-11-16T14:40:02.825Z,79
2022-11-16T15:00:03.451Z,79
2022-11-16T15:20:03.446Z,79
2022-11-16T15:40:03.053Z,78
2022-11-16T16:00:02.757Z,78
2022-11-16T16:20:03.048Z,78
2022-11-16T16:40:03.123Z,77
2022-11-16T17:00:02.885Z,77
2022-11-16T17:20:02.909Z,77
2022-11-16T17:40:02.427Z,77
2022-11-16T18:00:03.205Z,77
2022-11-16T18:20:03.248Z,76
2022-11-16T18:40:02.889Z,76
2022-11-16T19:00:02.636Z,75
2022-11-16T19:20:02.749Z,75
2022-11-16T19:40:03.532Z,75
2022-11-16T20:00:03.709Z,75
2022-11-16T20:20:02.624Z,75
2022-11-16T20:40:08.503Z,75
2022-11-16T21:00:03.042Z,74
2022-11-16T21:20:28.857Z,74
2022-11-16T21:40:02.563Z,74
2022-11-16T22:00:03.186Z,74
2022-11-16T22:20:03.065Z,74
2022-11-16T22:40:02.622Z,74
2022-11-16T23:00:03.117Z,74
2022-11-16T23:20:02.999Z,74
2022-11-16T23:40:02.502Z,74
